createdAt,value
2022-12-11T00:01:30.813Z,98325.56
2022-12-11T00:04:38.378Z,98311.34
2022-12-11T00:07:43.344Z,98306.94
2022-12-11T00:10:50.776Z,98303.53
2022-12-11T00:13:58.167Z,98305.16
2022-12-11T00:17:07.207Z,98283.25
2022-12-11T00:20:14.187Z,98281.00
2022-12-11T00:23:24.157Z,98303.38
2022-12-11T00:26:29.100Z,98285.75
2022-12-11T00:29:38.482Z,98287.69
2022-12-11T00:32:45.979Z,98286.87
2022-12-11T00:35:54.836Z,98290.47
2022-12-11T00:39:02.840Z,98303.44
2022-12-11T00:42:11.040Z,98292.47
2022-12-11T00:45:17.479Z,98284.09
2022-12-11T00:48:25.217Z,98284.44
2022-12-11T00:51:32.331Z,98287.41
2022-12-11T00:54:38.496Z,98281.38
2022-12-11T00:57:45.210Z,98290.22
2022-12-11T01:00:53.864Z,98290.38
2022-12-11T01:04:01.097Z,98290.19
2022-12-11T01:07:06.799Z,98299.22
2022-12-11T01:10:26.413Z,98294.13
2022-12-11T01:13:33.135Z,98281.41
2022-12-11T01:16:38.172Z,98294.78
2022-12-11T01:19:44.944Z,98295.13
2022-12-11T01:22:54.591Z,98317.19
2022-12-11T01:26:07.401Z,98296.09
2022-12-11T01:29:12.895Z,98302.78
2022-12-11T01:32:21.687Z,98298.72
2022-12-11T01:35:28.172Z,98302.81
2022-12-11T01:38:38.408Z,98298.75
2022-12-11T01:41:46.990Z,98311.63
2022-12-11T01:44:52.669Z,98306.88
2022-12-11T01:48:01.705Z,98305.59
2022-12-11T01:51:10.408Z,98311.16
2022-12-11T01:54:19.734Z,98316.69
2022-12-11T01:57:28.709Z,98319.78
2022-12-11T02:00:36.926Z,98329.25
2022-12-11T02:03:44.127Z,98331.06
2022-12-11T02:06:53.069Z,98334.16
2022-12-11T02:09:59.740Z,98328.25
2022-12-11T02:13:15.083Z,98322.53
2022-12-11T02:16:30.724Z,98321.72
2022-12-11T02:19:57.352Z,98330.38
2022-12-11T02:23:15.104Z,98310.09
2022-12-11T02:26:38.563Z,98318.72
2022-12-11T02:29:51.299Z,98332.25
2022-12-11T02:32:59.331Z,98323.28
2022-12-11T02:36:06.491Z,98328.81
2022-12-11T02:39:15.770Z,98333.69
2022-12-11T02:42:22.820Z,98323.72
2022-12-11T02:45:30.385Z,98315.25
2022-12-11T02:48:37.129Z,98318.81
2022-12-11T02:51:45.177Z,98317.31
2022-12-11T02:54:53.604Z,98309.31
2022-12-11T02:58:02.373Z,98310.16
2022-12-11T03:01:09.298Z,98308.31
2022-12-11T03:04:16.933Z,98307.66
2022-12-11T03:07:27.727Z,98310.41
2022-12-11T03:10:34.015Z,98305.66
2022-12-11T03:13:43.606Z,98298.12
2022-12-11T03:16:58.602Z,98295.38
2022-12-11T03:20:10.151Z,98293.09
2022-12-11T03:23:22.748Z,98295.16
2022-12-11T03:26:30.274Z,98299.94
2022-12-11T03:29:39.894Z,98306.63
2022-12-11T03:32:54.593Z,98303.53
2022-12-11T03:36:10.539Z,98304.00
2022-12-11T03:39:20.811Z,98295.69
2022-12-11T03:42:29.579Z,98297.28
2022-12-11T03:45:40.646Z,98285.87
2022-12-11T03:48:50.661Z,98286.34
2022-12-11T03:51:57.757Z,98301.03
2022-12-11T03:55:06.430Z,98316.50
2022-12-11T03:58:13.174Z,98290.59
2022-12-11T04:01:21.579Z,98290.41
2022-12-11T04:04:31.414Z,98307.38
2022-12-11T04:07:39.269Z,98302.63
2022-12-11T04:10:47.301Z,98301.16
2022-12-11T04:14:13.631Z,98313.22
2022-12-11T04:17:39.656Z,98300.47
2022-12-11T04:21:04.593Z,98316.13
2022-12-11T04:24:17.805Z,98309.94
2022-12-11T04:27:50.425Z,98319.56
2022-12-11T04:30:56.439Z,98313.38
2022-12-11T04:34:11.562Z,98328.19
2022-12-11T04:37:17.843Z,98317.91
2022-12-11T04:40:24.036Z,98337.00
2022-12-11T04:43:31.477Z,98331.78
2022-12-11T04:46:36.984Z,98338.13
2022-12-11T04:49:42.995Z,98337.31
2022-12-11T04:52:47.321Z,98349.22
2022-12-11T04:55:57.317Z,98351.81
2022-12-11T04:59:03.023Z,98356.75
2022-12-11T05:02:11.661Z,98368.16
2022-12-11T05:05:18.094Z,98374.03
2022-12-11T05:08:24.888Z,98367.84
2022-12-11T05:11:30.540Z,98375.53
2022-12-11T05:14:36.850Z,98381.56
2022-12-11T05:17:43.074Z,98398.03
2022-12-11T05:21:03.083Z,98379.59
2022-12-11T05:24:08.372Z,98382.53
2022-12-11T05:27:16.059Z,98391.03
2022-12-11T05:30:25.575Z,98396.91
2022-12-11T05:33:31.733Z,98395.63
2022-12-11T05:36:39.206Z,98391.53
2022-12-11T05:39:47.473Z,98398.41
2022-12-11T05:42:53.669Z,98389.22
2022-12-11T05:46:07.346Z,98389.75
2022-12-11T05:49:13.619Z,98378.34
2022-12-11T05:52:25.630Z,98388.78
2022-12-11T05:55:31.205Z,98374.38
2022-12-11T05:58:41.649Z,98387.44
2022-12-11T06:01:48.979Z,98396.25
2022-12-11T06:04:55.862Z,98391.81
2022-12-11T06:08:05.037Z,98400.94
2022-12-11T06:11:12.238Z,98403.91
2022-12-11T06:14:19.868Z,98412.88
2022-12-11T06:17:26.058Z,98418.09
2022-12-11T06:20:34.117Z,98424.13
2022-12-11T06:23:41.853Z,98430.97
2022-12-11T06:26:46.051Z,98435.38
2022-12-11T06:29:51.810Z,98438.78
2022-12-11T06:33:00.605Z,98455.13
2022-12-11T06:36:10.236Z,98449.06
2022-12-11T06:39:18.149Z,98458.91
2022-12-11T06:42:31.073Z,98458.78
2022-12-11T06:45:40.368Z,98474.25
2022-12-11T06:48:48.552Z,98463.47
2022-12-11T06:51:54.669Z,98486.81
2022-12-11T06:55:01.926Z,98480.25
2022-12-11T06:58:11.001Z,98507.31
2022-12-11T07:01:24.346Z,98505.19
2022-12-11T07:04:31.239Z,98501.78
2022-12-11T07:07:39.416Z,98514.03
2022-12-11T07:10:46.946Z,98521.53
2022-12-11T07:13:54.480Z,98515.63
2022-12-11T07:17:02.913Z,98526.31
2022-12-11T07:20:10.206Z,98527.78
2022-12-11T07:23:16.058Z,98536.28
2022-12-11T07:26:25.779Z,98535.84
2022-12-11T07:29:32.214Z,98539.41
2022-12-11T07:32:40.990Z,98557.31
2022-12-11T07:35:49.476Z,98553.56
2022-12-11T07:38:55.900Z,98553.78
2022-12-11T07:42:04.558Z,98556.97
2022-12-11T07:45:11.504Z,98572.25
2022-12-11T07:48:18.723Z,98573.91
2022-12-11T07:51:31.146Z,98585.56
2022-12-11T07:54:38.982Z,98582.34
2022-12-11T07:57:44.822Z,98593.00
2022-12-11T08:00:51.538Z,98595.75
2022-12-11T08:03:59.006Z,98606.00
2022-12-11T08:07:05.872Z,98630.00
2022-12-11T08:10:12.104Z,98616.09
2022-12-11T08:13:17.182Z,98618.34
2022-12-11T08:16:26.401Z,98615.22
2022-12-11T08:19:32.421Z,98633.44
2022-12-11T08:22:39.054Z,98638.13
2022-12-11T08:25:45.487Z,98632.88
2022-12-11T08:28:53.736Z,98648.41
2022-12-11T08:32:02.509Z,98646.31
2022-12-11T08:35:12.241Z,98643.56
2022-12-11T08:38:25.042Z,98653.56
2022-12-11T08:41:33.641Z,98651.41
2022-12-11T08:44:39.109Z,98646.69
2022-12-11T08:47:45.609Z,98667.06
2022-12-11T08:50:53.576Z,98660.47
2022-12-11T08:53:59.653Z,98668.34
2022-12-11T08:57:06.409Z,98668.72
2022-12-11T09:00:15.977Z,98679.62
2022-12-11T09:03:22.230Z,98695.13
2022-12-11T09:06:29.067Z,98699.56
2022-12-11T09:09:33.694Z,98703.34
2022-12-11T09:12:42.165Z,98694.47
2022-12-11T09:15:45.012Z,98700.91
2022-12-11T09:18:51.013Z,98713.41
2022-12-11T09:21:58.679Z,98711.25
2022-12-11T09:25:06.025Z,98697.75
2022-12-11T09:28:11.269Z,98700.91
2022-12-11T09:31:26.847Z,98700.72
2022-12-11T09:34:33.791Z,98696.50
2022-12-11T09:37:40.553Z,98696.19
2022-12-11T09:40:45.115Z,98693.66
2022-12-11T09:43:49.765Z,98699.72
2022-12-11T09:46:56.320Z,98698.75
2022-12-11T09:50:11.803Z,98696.94
2022-12-11T09:53:20.473Z,98700.91
2022-12-11T09:56:34.411Z,98713.78
2022-12-11T09:59:47.070Z,98695.50
2022-12-11T10:02:56.862Z,98690.50
2022-12-11T10:06:18.473Z,98697.97
2022-12-11T10:09:23.197Z,98689.53
2022-12-11T10:12:32.232Z,98680.50
2022-12-11T10:15:54.133Z,98671.28
2022-12-11T10:19:01.232Z,98670.31
2022-12-11T10:22:21.685Z,98682.87
2022-12-11T10:25:32.290Z,98699.31
2022-12-11T10:28:39.364Z,98695.28
2022-12-11T10:31:52.441Z,98704.03
2022-12-11T10:35:02.989Z,98716.41
2022-12-11T10:38:18.122Z,98716.50
2022-12-11T10:41:33.036Z,98711.47
2022-12-11T10:44:38.480Z,98702.28
2022-12-11T10:47:43.094Z,98723.38
2022-12-11T10:50:56.199Z,98719.38
2022-12-11T10:54:17.629Z,98724.94
2022-12-11T10:57:29.439Z,98743.34
2022-12-11T11:00:35.226Z,98744.88
2022-12-11T11:03:52.895Z,98741.06
2022-12-11T11:07:23.112Z,98728.69
2022-12-11T11:10:28.779Z,98738.69
2022-12-11T11:13:36.449Z,98741.28
2022-12-11T11:16:44.073Z,98745.53
2022-12-11T11:19:54.025Z,98733.72
2022-12-11T11:23:04.196Z,98746.88
2022-12-11T11:26:10.699Z,98735.44
2022-12-11T11:29:26.243Z,98725.06
2022-12-11T11:32:34.062Z,98723.09
2022-12-11T11:35:53.532Z,98721.00
2022-12-11T11:39:09.440Z,98725.72
2022-12-11T11:42:20.034Z,98732.66
2022-12-11T11:45:41.689Z,98758.50
2022-12-11T11:48:52.507Z,98751.13
2022-12-11T11:52:03.367Z,98763.38
2022-12-11T11:55:20.324Z,98760.94
2022-12-11T11:58:32.121Z,98748.06
2022-12-11T12:01:41.371Z,98765.00
2022-12-11T12:04:47.095Z,98772.69
2022-12-11T12:08:08.221Z,98773.50
2022-12-11T12:11:46.004Z,98789.87
2022-12-11T12:14:55.989Z,98793.69
2022-12-11T12:18:09.885Z,98795.63
2022-12-11T12:21:16.025Z,98792.03
2022-12-11T12:24:28.996Z,98794.56
2022-12-11T12:27:54.269Z,98800.09
2022-12-11T12:31:03.616Z,98791.66
2022-12-11T12:34:18.453Z,98802.00
2022-12-11T12:37:39.221Z,98795.25
2022-12-11T12:40:45.293Z,98798.38
2022-12-11T12:44:22.033Z,98802.31
2022-12-11T12:47:29.485Z,98796.75
2022-12-11T12:50:43.324Z,98791.00
2022-12-11T12:54:12.326Z,98802.78
2022-12-11T12:57:21.329Z,98809.06
2022-12-11T13:00:32.287Z,98805.19
2022-12-11T13:03:52.771Z,98823.56
2022-12-11T13:06:59.982Z,98840.00
2022-12-11T13:10:25.133Z,98843.88
2022-12-11T13:13:34.765Z,98851.34
2022-12-11T13:16:41.850Z,98858.88
2022-12-11T13:19:50.973Z,98855.16
2022-12-11T13:22:59.802Z,98863.97
2022-12-11T13:26:08.461Z,98868.91
2022-12-11T13:29:30.280Z,98869.41
2022-12-11T13:32:35.706Z,98866.22
2022-12-11T13:35:42.376Z,98863.09
2022-12-11T13:38:50.386Z,98880.41
2022-12-11T13:41:59.532Z,98885.78
2022-12-11T13:45:05.840Z,98883.84
2022-12-11T13:48:22.913Z,98886.22
2022-12-11T13:51:30.760Z,98894.81
2022-12-11T13:54:49.883Z,98894.16
2022-12-11T13:57:55.953Z,98885.91
2022-12-11T14:01:14.582Z,98890.31
2022-12-11T14:04:22.915Z,98895.16
2022-12-11T14:07:31.087Z,98897.91
2022-12-11T14:10:40.373Z,98911.87
2022-12-11T14:13:47.230Z,98916.47
2022-12-11T14:16:56.099Z,98926.53
2022-12-11T14:20:03.624Z,98929.13
2022-12-11T14:23:17.805Z,98938.38
2022-12-11T14:26:24.969Z,98940.16
2022-12-11T14:29:33.481Z,98938.94
2022-12-11T14:32:42.516Z,98946.12
2022-12-11T14:35:51.081Z,98968.44
2022-12-11T14:39:04.983Z,98968.12
2022-12-11T14:42:18.994Z,98956.47
2022-12-11T14:45:37.900Z,98978.63
2022-12-11T14:48:53.856Z,98972.84
2022-12-11T14:52:02.393Z,98965.41
2022-12-11T14:55:17.103Z,98978.09
2022-12-11T14:58:22.687Z,98985.53
2022-12-11T15:01:29.574Z,98974.38
2022-12-11T15:04:33.602Z,98970.72
2022-12-11T15:07:42.602Z,98982.94
2022-12-11T15:11:07.769Z,98991.31
2022-12-11T15:14:15.204Z,98992.44
2022-12-11T15:17:20.523Z,99001.91
2022-12-11T15:20:29.274Z,99004.13
2022-12-11T15:23:38.639Z,99014.28
2022-12-11T15:26:48.466Z,99000.94
2022-12-11T15:29:56.179Z,99015.97
2022-12-11T15:33:04.801Z,99006.59
2022-12-11T15:36:26.245Z,99011.28
2022-12-11T15:39:33.081Z,99006.47
2022-12-11T15:42:42.688Z,99014.19
2022-12-11T15:45:51.327Z,99015.16
2022-12-11T15:49:00.076Z,99008.41
2022-12-11T15:52:05.851Z,99013.19
2022-12-11T15:55:12.170Z,99010.22
2022-12-11T15:58:21.835Z,99026.13
2022-12-11T16:01:25.570Z,99023.94
2022-12-11T16:04:30.629Z,99022.88
2022-12-11T16:07:35.186Z,99023.66
2022-12-11T16:10:44.132Z,99034.09
2022-12-11T16:13:49.549Z,99028.50
2022-12-11T16:16:54.689Z,99041.28
2022-12-11T16:20:00.003Z,99042.94
2022-12-11T16:23:06.806Z,99056.53
2022-12-11T16:26:10.322Z,99051.31
2022-12-11T16:29:14.090Z,99048.41
2022-12-11T16:32:18.677Z,99041.16
2022-12-11T16:35:24.057Z,99047.44
2022-12-11T16:38:28.396Z,99048.97
2022-12-11T16:41:32.897Z,99053.09
2022-12-11T16:44:40.997Z,99046.38
2022-12-11T16:47:49.707Z,99059.78
2022-12-11T16:50:57.303Z,99065.72
2022-12-11T16:54:04.904Z,99067.38
2022-12-11T16:57:08.710Z,99068.59
2022-12-11T17:00:13.013Z,99066.66
2022-12-11T17:03:17.633Z,99067.38
2022-12-11T17:06:23.379Z,99061.72
2022-12-11T17:09:28.382Z,99076.44
2022-12-11T17:12:33.449Z,99063.22
2022-12-11T17:15:41.946Z,99050.34
2022-12-11T17:18:49.628Z,99052.66
2022-12-11T17:21:54.695Z,99059.41
2022-12-11T17:24:58.246Z,99054.56
2022-12-11T17:28:03.381Z,99067.19
2022-12-11T17:31:14.185Z,99070.78
2022-12-11T17:34:17.509Z,99069.13
2022-12-11T17:37:21.596Z,99072.44
2022-12-11T17:40:29.061Z,99075.84
2022-12-11T17:43:35.750Z,99083.53
2022-12-11T17:46:41.666Z,99073.94
2022-12-11T17:49:46.079Z,99078.19
2022-12-11T17:52:49.932Z,99072.81
2022-12-11T17:55:56.961Z,99076.25
2022-12-11T17:59:01.917Z,99079.97
2022-12-11T18:02:11.104Z,99074.47
2022-12-11T18:05:17.935Z,99079.28
2022-12-11T18:08:24.007Z,99082.03
2022-12-11T18:11:32.621Z,99082.28
2022-12-11T18:14:39.837Z,99080.09
2022-12-11T18:17:47.371Z,99078.56
2022-12-11T18:20:54.686Z,99085.31
2022-12-11T18:24:01.747Z,99092.06
2022-12-11T18:27:12.041Z,99095.72
2022-12-11T18:30:18.151Z,99100.25
2022-12-11T18:33:22.715Z,99095.72
2022-12-11T18:36:29.859Z,99105.62
2022-12-11T18:39:33.462Z,99108.22
2022-12-11T18:42:39.468Z,99104.63
2022-12-11T18:45:47.584Z,99112.47
2022-12-11T18:48:53.144Z,99107.91
2022-12-11T18:51:59.792Z,99116.16
2022-12-11T18:55:06.975Z,99108.06
2022-12-11T18:58:16.017Z,99113.69
2022-12-11T19:01:25.255Z,99118.50
2022-12-11T19:04:31.040Z,99116.16
2022-12-11T19:07:37.640Z,99112.56
2022-12-11T19:10:47.261Z,99123.28
2022-12-11T19:13:57.596Z,99134.69
2022-12-11T19:17:04.276Z,99134.41
2022-12-11T19:20:40.534Z,99146.19
2022-12-11T19:23:41.677Z,99144.41
2022-12-11T19:26:48.035Z,99139.19
2022-12-11T19:29:52.334Z,99139.19
2022-12-11T19:32:58.649Z,99139.19
2022-12-11T19:36:07.997Z,99143.84
2022-12-11T19:39:18.097Z,99147.41
2022-12-11T19:42:25.490Z,99138.06
2022-12-11T19:45:33.420Z,99150.72
2022-12-11T19:48:41.217Z,99143.41
2022-12-11T19:51:47.568Z,99146.41
2022-12-11T19:54:55.532Z,99144.34
2022-12-11T19:58:00.307Z,99144.50
2022-12-11T20:01:06.526Z,99142.03
2022-12-11T20:04:12.890Z,99146.56
2022-12-11T20:07:21.627Z,99158.34
2022-12-11T20:10:28.248Z,99159.72
2022-12-11T20:13:35.166Z,99157.50
2022-12-11T20:20:06.318Z,99160.63
2022-12-11T20:23:12.323Z,99162.13
2022-12-11T20:26:20.858Z,99163.34
2022-12-11T20:29:26.311Z,99161.63
2022-12-11T20:32:32.025Z,99166.00
2022-12-11T20:35:38.140Z,99168.56
2022-12-11T20:38:42.569Z,99173.53
2022-12-11T20:41:48.758Z,99167.72
2022-12-11T20:44:55.282Z,99181.75
2022-12-11T20:48:03.432Z,99180.34
2022-12-11T20:51:10.922Z,99176.31
2022-12-11T20:54:16.342Z,99179.53
2022-12-11T20:57:22.084Z,99180.59
2022-12-11T21:00:28.152Z,99184.13
2022-12-11T21:03:36.432Z,99178.31
2022-12-11T21:06:45.961Z,99188.41
2022-12-11T21:09:52.119Z,99193.03
2022-12-11T21:12:59.699Z,99191.66
2022-12-11T21:16:09.181Z,99191.19
2022-12-11T21:19:17.969Z,99196.62
2022-12-11T21:22:24.501Z,99200.22
2022-12-11T21:25:34.318Z,99203.66
2022-12-11T21:28:41.014Z,99211.81
2022-12-11T21:31:50.795Z,99219.91
2022-12-11T21:34:59.712Z,99224.75
2022-12-11T21:38:08.001Z,99239.56
2022-12-11T21:41:15.839Z,99235.69
2022-12-11T21:47:47.874Z,99240.34
2022-12-11T21:50:54.045Z,99244.81
2022-12-11T21:54:00.865Z,99237.38
2022-12-11T21:57:08.069Z,99240.47
2022-12-11T22:00:15.732Z,99238.22
2022-12-11T22:03:22.541Z,99247.44
2022-12-11T22:06:30.483Z,99251.50
2022-12-11T22:09:37.635Z,99275.84
2022-12-11T22:12:43.736Z,99260.72
2022-12-11T22:15:50.536Z,99266.84
2022-12-11T22:18:55.817Z,99263.44
2022-12-11T22:22:03.204Z,99270.88
2022-12-11T22:25:10.062Z,99263.19
2022-12-11T22:28:15.213Z,99256.44
2022-12-11T22:31:23.030Z,99255.88
2022-12-11T22:34:28.574Z,99272.69
2022-12-11T22:37:33.697Z,99243.12
2022-12-11T22:40:49.151Z,99255.19
2022-12-11T22:43:54.041Z,99256.50
2022-12-11T22:47:00.334Z,99240.53
2022-12-11T22:50:07.520Z,99252.34
2022-12-11T22:53:12.414Z,99259.31
2022-12-11T22:56:18.190Z,99258.03
2022-12-11T22:59:23.060Z,99257.44
2022-12-11T23:02:30.348Z,99262.28
2022-12-11T23:05:40.351Z,99269.97
2022-12-11T23:08:46.092Z,99265.12
2022-12-11T23:11:54.134Z,99268.44
2022-12-11T23:15:03.788Z,99282.03
2022-12-11T23:18:08.783Z,99282.84
2022-12-11T23:21:12.851Z,99279.75
2022-12-11T23:24:20.994Z,99281.41
2022-12-11T23:27:26.560Z,99275.19
2022-12-11T23:30:32.901Z,99282.25
2022-12-11T23:33:37.419Z,99272.44
2022-12-11T23:36:45.702Z,99267.47
2022-12-11T23:39:49.938Z,99273.88
2022-12-11T23:42:55.285Z,99278.97
2022-12-11T23:46:03.917Z,99282.59
2022-12-11T23:49:12.509Z,99282.97
2022-12-11T23:52:22.990Z,99269.13
2022-12-11T23:55:31.362Z,99272.31
2022-12-11T23:58:38.369Z,99269.37
